Time;durP1;ratioP1;P1;durP2;ratioP2;P2;SDS_P1;SDS_P2;PMS_P1;PMS_P2;Temp;Humidity;BMP_temperature;BMP_pressure;BME280_temperature;BME280_humidity;BME280_pressure;Samples;Min_cycle;Max_cycle;Signal;HPM_P1;HPM_P2
2021/09/03 04:00:53;;;;;;;14.38;9.57;;;10.80;99.90;;;;;;6121552;23;20207;-68
2021/09/03 04:03:20;;;;;;;14.70;10.25;;;10.80;99.90;;;;;;6154793;23;20672;-68
2021/09/03 04:05:47;;;;;;;16.30;9.55;;;10.80;99.90;;;;;;6155990;23;20245;-68
2021/09/03 04:08:13;;;;;;;14.80;9.43;;;10.80;99.90;;;;;;6156137;23;20195;-68
2021/09/03 04:10:40;;;;;;;15.15;9.70;;;10.80;99.90;;;;;;6156073;23;20223;-69
2021/09/03 04:13:07;;;;;;;10.90;9.30;;;10.80;99.90;;;;;;6155409;23;20191;-68
2021/09/03 04:15:34;;;;;;;13.05;9.80;;;10.80;99.90;;;;;;6155615;23;20180;-68
2021/09/03 04:18:04;;;;;;;14.13;9.48;;;10.70;99.90;;;;;;6155624;23;20214;-68
2021/09/03 04:20:30;;;;;;;18.30;9.18;;;10.80;99.90;;;;;;6156117;23;20203;-69
2021/09/03 04:22:57;;;;;;;13.20;9.45;;;10.80;99.90;;;;;;6155129;23;20681;-68
2021/09/03 04:25:24;;;;;;;13.95;8.93;;;10.70;99.90;;;;;;6156080;23;20190;-70
2021/09/03 04:27:50;;;;;;;11.93;8.95;;;10.70;99.90;;;;;;6156051;23;20722;-69
2021/09/03 04:30:17;;;;;;;15.35;9.60;;;10.70;99.90;;;;;;6156373;23;20238;-69
2021/09/03 04:32:44;;;;;;;15.45;9.60;;;10.70;99.90;;;;;;6154402;23;20637;-69
2021/09/03 04:35:12;;;;;;;17.70;9.93;;;10.70;99.90;;;;;;6156134;23;20255;-68
2021/09/03 04:37:44;;;;;;;18.33;11.27;;;10.70;99.90;;;;;;6155252;23;20183;-69
2021/09/03 04:40:12;;;;;;;11.48;10.15;;;10.70;99.90;;;;;;6156174;23;20214;-69
2021/09/03 04:42:39;;;;;;;13.75;9.77;;;10.80;99.90;;;;;;6155601;23;20206;-69
2021/09/03 04:45:07;;;;;;;15.25;10.50;;;10.80;99.90;;;;;;6156232;23;20194;-69
2021/09/03 04:47:36;;;;;;;15.95;10.52;;;10.90;99.90;;;;;;6154780;23;20183;-69
2021/09/03 04:50:03;;;;;;;18.30;11.07;;;11.00;99.90;;;;;;6156459;23;20558;-68
2021/09/03 04:52:31;;;;;;;16.42;10.70;;;11.00;99.90;;;;;;6155439;23;20195;-67
2021/09/03 04:54:57;;;;;;;17.40;10.07;;;11.10;99.90;;;;;;6155893;23;20187;-67
2021/09/03 04:57:24;;;;;;;13.25;10.20;;;11.10;99.90;;;;;;6155745;23;20211;-70
2021/09/03 04:59:51;;;;;;;12.75;9.25;;;11.20;99.90;;;;;;6155820;23;20183;-69
2021/09/03 05:02:17;;;;;;;14.05;9.77;;;11.30;99.90;;;;;;6154561;23;20258;-70
2021/09/03 05:04:44;;;;;;;13.77;9.55;;;11.30;99.90;;;;;;6155363;23;20541;-71
2021/09/03 05:07:11;;;;;;;19.20;10.55;;;11.40;99.90;;;;;;6156188;23;20293;-71
2021/09/03 05:09:39;;;;;;;15.85;9.35;;;11.40;99.90;;;;;;6156104;23;20183;-71
2021/09/03 05:12:06;;;;;;;14.82;10.27;;;11.50;99.90;;;;;;6155792;23;20207;-70
2021/09/03 05:14:33;;;;;;;11.90;9.25;;;11.60;99.90;;;;;;6162682;23;20266;-71
2021/09/03 05:17:00;;;;;;;11.30;9.25;;;11.60;99.90;;;;;;6155144;23;20195;-71
2021/09/03 05:19:26;;;;;;;10.15;8.20;;;11.70;99.90;;;;;;6154682;23;20514;-70
2021/09/03 05:21:54;;;;;;;14.60;10.05;;;11.70;99.90;;;;;;6155196;23;20236;-70
2021/09/03 05:24:20;;;;;;;13.52;8.90;;;11.80;99.90;;;;;;6155244;23;20179;-70
2021/09/03 05:26:48;;;;;;;10.68;9.15;;;11.90;99.90;;;;;;6154951;23;20265;-69
2021/09/03 05:29:15;;;;;;;11.38;9.10;;;11.90;99.90;;;;;;6154995;23;20700;-68
2021/09/03 05:31:42;;;;;;;13.02;9.00;;;12.00;99.90;;;;;;6154787;23;20211;-68
2021/09/03 05:34:08;;;;;;;15.55;9.30;;;12.10;99.90;;;;;;6153953;23;20184;-68
2021/09/03 05:36:35;;;;;;;13.60;8.45;;;12.20;99.90;;;;;;6155666;23;20429;-69
2021/09/03 05:39:01;;;;;;;14.50;9.60;;;12.20;99.90;;;;;;6154486;23;20263;-69
2021/09/03 05:41:28;;;;;;;12.18;9.38;;;12.30;99.90;;;;;;6155219;23;20250;-69
2021/09/03 05:43:56;;;;;;;13.65;9.65;;;12.40;99.90;;;;;;6154858;23;20202;-69
2021/09/03 05:46:23;;;;;;;13.17;11.10;;;12.50;99.90;;;;;;6154955;23;20254;-69
2021/09/03 05:48:49;;;;;;;23.43;10.70;;;12.50;99.90;;;;;;6154239;23;20439;-69
2021/09/03 05:51:16;;;;;;;14.97;10.03;;;12.60;99.90;;;;;;6155398;23;20501;-69
2021/09/03 05:53:42;;;;;;;14.07;9.87;;;12.80;99.90;;;;;;6154693;23;20425;-69
2021/09/03 05:56:09;;;;;;;14.17;10.07;;;12.80;99.90;;;;;;6155111;23;20426;-69
2021/09/03 05:58:36;;;;;;;15.23;10.00;;;12.90;99.90;;;;;;6155251;23;20423;-69
2021/09/03 06:01:04;;;;;;;12.53;9.13;;;13.00;99.90;;;;;;6153996;23;20864;-69
2021/09/03 06:03:31;;;;;;;18.10;10.90;;;13.10;99.90;;;;;;6153978;23;20447;-69
2021/09/03 06:05:57;;;;;;;18.83;12.07;;;13.20;99.90;;;;;;6154540;23;20422;-69
2021/09/03 06:08:24;;;;;;;17.63;11.07;;;13.20;99.90;;;;;;6154869;23;20422;-69
2021/09/03 06:10:51;;;;;;;15.23;10.13;;;13.30;99.90;;;;;;6154454;23;21007;-69
2021/09/03 06:13:17;;;;;;;22.63;12.43;;;13.40;99.90;;;;;;6153745;23;20442;-69
2021/09/03 06:15:44;;;;;;;18.63;13.03;;;13.50;99.90;;;;;;6154341;23;20477;-69
2021/09/03 06:18:12;;;;;;;18.50;12.80;;;13.60;99.90;;;;;;6154405;23;20493;-69
2021/09/03 06:20:39;;;;;;;15.87;11.63;;;13.70;99.90;;;;;;6154742;23;20442;-69
2021/09/03 06:23:05;;;;;;;24.27;12.20;;;13.80;99.90;;;;;;6153870;23;20458;-69
2021/09/03 06:25:32;;;;;;;16.83;12.00;;;13.90;99.90;;;;;;6155055;23;20486;-69
2021/09/03 06:27:59;;;;;;;15.87;12.43;;;14.00;99.90;;;;;;6154264;23;20430;-69
2021/09/03 06:30:25;;;;;;;21.87;13.13;;;14.00;99.90;;;;;;6154497;23;22125;-69
2021/09/03 06:32:52;;;;;;;16.87;12.33;;;14.10;99.90;;;;;;6154181;23;20427;-68
2021/09/03 06:35:20;;;;;;;16.03;11.40;;;14.20;99.90;;;;;;6154594;23;20802;-68
2021/09/03 06:37:47;;;;;;;15.77;12.00;;;14.30;99.90;;;;;;6154645;23;20426;-68
2021/09/03 06:40:13;;;;;;;15.03;11.10;;;14.40;99.90;;;;;;6155302;23;20481;-68
2021/09/03 06:42:40;;;;;;;21.57;11.60;;;14.50;99.90;;;;;;6153924;23;21027;-69
2021/09/03 06:45:09;;;;;;;17.87;11.70;;;14.60;99.90;;;;;;6155072;23;20535;-68
2021/09/03 06:47:35;;;;;;;18.23;11.27;;;14.70;99.90;;;;;;6153124;23;20462;-69
2021/09/03 06:50:03;;;;;;;13.37;9.80;;;14.80;99.90;;;;;;6154986;23;20537;-68
2021/09/03 06:52:30;;;;;;;15.53;10.70;;;14.90;99.90;;;;;;6154303;23;20447;-68
2021/09/03 06:54:58;;;;;;;14.57;10.40;;;15.00;99.90;;;;;;6164420;23;20426;-68
2021/09/03 06:57:25;;;;;;;19.13;10.80;;;15.10;99.90;;;;;;6154027;23;20991;-69
2021/09/03 06:59:52;;;;;;;17.03;11.00;;;15.20;99.90;;;;;;6154969;23;20473;-69
2021/09/03 07:02:19;;;;;;;16.03;10.50;;;15.40;99.90;;;;;;6153330;23;20450;-68
2021/09/03 07:04:45;;;;;;;13.57;9.67;;;15.50;99.90;;;;;;6154201;23;20434;-68
2021/09/03 07:07:12;;;;;;;13.37;9.93;;;15.60;99.90;;;;;;6154485;23;20500;-68
2021/09/03 07:09:40;;;;;;;11.80;10.07;;;15.70;99.90;;;;;;6154865;23;20438;-68
2021/09/03 07:12:07;;;;;;;16.60;10.17;;;15.80;99.90;;;;;;6154459;23;20513;-68
2021/09/03 07:14:34;;;;;;;12.00;9.73;;;15.90;99.90;;;;;;6154717;23;20762;-68
2021/09/03 07:17:01;;;;;;;16.80;9.23;;;16.00;99.90;;;;;;6154257;23;20449;-68
2021/09/03 07:19:27;;;;;;;13.53;9.60;;;16.00;99.90;;;;;;6153807;23;20767;-71
2021/09/03 07:21:54;;;;;;;16.43;10.03;;;16.10;99.90;;;;;;6154859;23;20480;-71
2021/09/03 07:24:20;;;;;;;14.17;10.10;;;16.10;99.90;;;;;;6153875;23;20442;-71
2021/09/03 07:26:48;;;;;;;14.47;9.57;;;16.20;99.90;;;;;;6156410;23;20426;-71
2021/09/03 07:29:15;;;;;;;14.10;9.30;;;16.10;99.90;;;;;;6156260;23;20426;-71
2021/09/03 07:31:42;;;;;;;10.60;8.57;;;16.20;99.90;;;;;;6155646;23;20454;-71
2021/09/03 07:34:08;;;;;;;13.40;8.70;;;16.20;99.90;;;;;;6155857;23;20500;-71
2021/09/03 07:36:35;;;;;;;14.57;8.83;;;16.30;99.90;;;;;;6156021;23;20482;-71
2021/09/03 07:39:01;;;;;;;11.27;8.40;;;16.40;99.90;;;;;;6155803;23;20426;-71
2021/09/03 07:41:28;;;;;;;12.40;7.87;;;16.50;99.90;;;;;;6155805;23;20462;-71
2021/09/03 07:43:56;;;;;;;13.80;7.90;;;16.50;99.90;;;;;;6155815;23;20714;-71
2021/09/03 07:46:23;;;;;;;12.10;8.20;;;16.60;99.90;;;;;;6155832;23;20430;-71
2021/09/03 07:48:50;;;;;;;10.17;8.17;;;16.70;99.90;;;;;;6155291;23;20422;-71
2021/09/03 07:51:17;;;;;;;11.20;7.50;;;16.70;99.90;;;;;;6156343;23;20469;-68
2021/09/03 07:53:43;;;;;;;11.23;8.67;;;16.70;99.90;;;;;;6155251;23;20445;-68
2021/09/03 07:56:10;;;;;;;10.57;7.17;;;16.80;99.90;;;;;;6156167;23;20422;-68
2021/09/03 07:58:37;;;;;;;9.10;8.00;;;16.80;99.90;;;;;;6156293;23;20483;-67
2021/09/03 08:01:05;;;;;;;11.10;7.33;;;16.90;99.90;;;;;;6155377;23;20451;-68
2021/09/03 08:03:31;;;;;;;12.37;6.93;;;16.90;99.90;;;;;;6155151;23;20472;-68
2021/09/03 08:05:58;;;;;;;8.23;7.33;;;16.80;99.90;;;;;;6156159;23;20477;-69
2021/09/03 08:08:25;;;;;;;14.10;8.50;;;16.90;99.90;;;;;;6156197;23;20435;-69
2021/09/03 08:10:51;;;;;;;12.87;8.53;;;17.00;99.90;;;;;;6156042;23;20792;-68
2021/09/03 08:13:18;;;;;;;8.57;7.57;;;17.00;99.90;;;;;;6155779;23;20450;-68
2021/09/03 08:15:45;;;;;;;12.23;7.63;;;17.10;99.90;;;;;;6154966;23;20508;-68
2021/09/03 08:18:13;;;;;;;15.93;9.17;;;17.10;99.90;;;;;;6155610;23;20422;-68
2021/09/03 08:20:42;;;;;;;14.10;8.07;;;17.20;99.90;;;;;;6155775;23;20472;-68
2021/09/03 08:23:08;;;;;;;14.70;8.67;;;17.30;99.90;;;;;;6155695;23;20505;-68
2021/09/03 08:25:35;;;;;;;8.83;7.07;;;17.30;99.90;;;;;;6155573;23;20493;-68
2021/09/03 08:28:02;;;;;;;8.17;6.80;;;17.50;99.90;;;;;;6156024;23;20407;-68
2021/09/03 08:30:28;;;;;;;8.50;7.63;;;17.50;99.90;;;;;;6155321;23;20462;-69
2021/09/03 08:32:55;;;;;;;8.57;7.40;;;17.60;99.90;;;;;;6154868;23;20427;-68
2021/09/03 08:35:24;;;;;;;10.93;8.50;;;17.70;99.90;;;;;;6155250;23;20453;-68
2021/09/03 08:37:51;;;;;;;12.80;7.90;;;17.80;99.90;;;;;;6155653;23;20411;-71
2021/09/03 08:40:17;;;;;;;12.97;10.20;;;17.90;99.90;;;;;;6156693;23;20445;-68
2021/09/03 08:42:44;;;;;;;10.73;7.83;;;17.90;99.90;;;;;;6155721;23;20473;-68
2021/09/03 08:45:14;;;;;;;10.30;7.93;;;17.90;99.90;;;;;;6155796;23;20446;-71
2021/09/03 08:47:42;;;;;;;9.90;8.13;;;18.10;99.90;;;;;;6154202;23;20901;-70
2021/09/03 08:50:12;;;;;;;8.53;7.37;;;18.10;99.90;;;;;;6155961;23;20744;-71
2021/09/03 08:52:43;;;;;;;9.83;7.60;;;18.30;99.90;;;;;;6155088;23;20897;-71
2021/09/03 08:55:10;;;;;;;17.40;8.27;;;18.40;99.90;;;;;;6156154;23;20434;-71
2021/09/03 08:57:37;;;;;;;13.73;7.73;;;18.40;99.90;;;;;;6155303;23;20421;-72
2021/09/03 09:00:11;;;;;;;8.87;7.60;;;18.60;99.90;;;;;;6156285;23;20430;-72
2021/09/03 09:02:38;;;;;;;12.10;6.93;;;18.60;99.90;;;;;;6154078;23;20925;-68
2021/09/03 09:05:05;;;;;;;9.77;7.20;;;18.80;99.90;;;;;;6155872;23;20458;-67
2021/09/03 09:07:32;;;;;;;9.00;6.67;;;18.80;99.90;;;;;;6155151;23;20450;-68
2021/09/03 09:10:07;;;;;;;10.23;7.27;;;18.70;99.90;;;;;;6155799;23;20426;-67
2021/09/03 09:12:34;;;;;;;12.20;9.50;;;18.70;99.90;;;;;;6155138;23;20449;-68
2021/09/03 09:15:03;;;;;;;9.83;8.23;;;18.70;99.90;;;;;;6155720;23;20454;-68
2021/09/03 09:17:35;;;;;;;10.43;8.70;;;18.80;99.90;;;;;;6154973;23;20423;-68
2021/09/03 09:20:02;;;;;;;8.07;7.37;;;19.00;99.90;;;;;;6155879;23;20724;-68
2021/09/03 09:22:29;;;;;;;11.17;8.23;;;19.00;99.90;;;;;;6155063;23;20739;-68
2021/09/03 09:25:18;;;;;;;10.80;7.47;;;19.10;99.90;;;;;;6155587;23;20442;-69
2021/09/03 09:27:45;;;;;;;12.33;7.90;;;19.20;99.90;;;;;;6155737;23;20411;-68
2021/09/03 09:30:24;;;;;;;9.80;7.23;;;19.20;99.90;;;;;;6155618;23;20505;-69
2021/09/03 09:33:10;;;;;;;11.40;7.33;;;19.20;99.90;;;;;;6154512;23;20426;-68
2021/09/03 09:35:42;;;;;;;7.13;6.23;;;19.10;99.90;;;;;;6155642;23;20905;-69
2021/09/03 09:38:08;;;;;;;11.17;7.90;;;18.90;99.90;;;;;;6156315;23;20872;-68
2021/09/03 09:40:48;;;;;;;9.67;7.23;;;18.70;99.90;;;;;;6156397;23;20810;-68
2021/09/03 09:43:40;;;;;;;10.30;7.20;;;18.60;99.90;;;;;;6155728;23;20469;-68
2021/09/03 09:46:21;;;;;;;10.83;8.10;;;18.50;99.90;;;;;;6134132;23;20923;-68
2021/09/03 09:49:06;;;;;;;14.10;7.93;;;18.50;99.90;;;;;;6155186;23;20484;-68
2021/09/03 09:51:36;;;;;;;10.77;7.50;;;18.40;99.90;;;;;;6166554;23;20442;-68
2021/09/03 09:54:08;;;;;;;11.50;8.90;;;18.40;99.90;;;;;;6166977;23;20509;-69
2021/09/03 09:56:38;;;;;;;11.03;8.07;;;18.40;99.90;;;;;;6167701;23;20466;-69
2021/09/03 09:59:07;;;;;;;11.87;8.53;;;18.40;99.90;;;;;;6167565;23;20881;-68
2021/09/03 10:01:34;;;;;;;16.03;8.00;;;18.40;99.90;;;;;;6159641;23;20442;-68
2021/09/03 10:04:05;;;;;;;10.17;7.53;;;18.40;99.90;;;;;;6154392;23;20837;-68
2021/09/03 10:06:33;;;;;;;9.13;6.83;;;18.40;99.90;;;;;;6155314;23;20439;-67
2021/09/03 10:09:00;;;;;;;8.80;6.80;;;18.40;99.90;;;;;;6155137;23;20423;-69
2021/09/03 10:11:27;;;;;;;9.63;7.60;;;18.40;99.90;;;;;;6154871;23;20459;-68
2021/09/03 10:13:55;;;;;;;7.77;7.10;;;18.50;99.90;;;;;;6154866;23;20490;-69
2021/09/03 10:16:22;;;;;;;16.30;8.20;;;18.50;99.90;;;;;;6154223;23;20422;-68
2021/09/03 10:18:53;;;;;;;13.97;7.70;;;18.50;99.90;;;;;;6154168;23;20454;-68
2021/09/03 10:21:22;;;;;;;16.27;9.37;;;18.50;99.90;;;;;;6154409;23;21007;-68
2021/09/03 10:23:54;;;;;;;10.40;7.63;;;18.50;99.90;;;;;;6154755;23;20777;-68
2021/09/03 10:26:24;;;;;;;9.90;8.17;;;18.60;99.90;;;;;;6155087;23;20448;-68
2021/09/03 10:29:23;;;;;;;8.70;7.07;;;18.60;99.90;;;;;;6154903;23;20446;-69
2021/09/03 10:32:26;;;;;;;10.90;7.73;;;18.60;99.90;;;;;;6154040;23;20979;-68
2021/09/03 10:35:13;;;;;;;9.23;7.20;;;18.80;99.90;;;;;;6154282;23;20440;-68
2021/09/03 10:37:40;;;;;;;12.03;8.83;;;18.80;99.90;;;;;;6154348;23;20410;-68
2021/09/03 10:40:13;;;;;;;9.47;8.47;;;18.80;99.90;;;;;;6154893;23;20779;-69
2021/09/03 10:42:53;;;;;;;8.93;7.80;;;18.80;99.90;;;;;;6154551;23;20461;-68
2021/09/03 10:45:24;;;;;;;12.53;6.57;;;18.80;99.90;;;;;;6154661;23;20459;-68
2021/09/03 10:47:59;;;;;;;9.83;8.60;;;18.90;99.90;;;;;;6153844;23;20426;-68
2021/09/03 10:50:29;;;;;;;7.17;6.50;;;19.00;99.90;;;;;;6154658;23;20451;-68
2021/09/03 10:53:16;;;;;;;10.93;7.90;;;19.00;99.90;;;;;;6154224;23;20456;-68
2021/09/03 10:56:07;;;;;;;8.60;7.10;;;19.10;99.90;;;;;;6154755;23;20422;-68
2021/09/03 10:58:52;;;;;;;14.50;7.60;;;19.20;99.90;;;;;;6154346;23;20543;-68
2021/09/03 11:01:49;;;;;;;10.20;8.07;;;19.20;99.90;;;;;;6153714;23;20475;-68
2021/09/03 11:04:17;;;;;;;8.63;6.50;;;19.20;99.90;;;;;;6153413;23;20501;-68
2021/09/03 11:07:12;;;;;;;7.40;6.13;;;19.10;99.90;;;;;;6154489;23;20751;-67
2021/09/03 11:09:44;;;;;;;8.83;7.37;;;19.20;99.90;;;;;;6153689;23;20435;-68
2021/09/03 11:12:12;;;;;;;7.57;6.80;;;19.20;99.90;;;;;;6153854;23;20727;-68
2021/09/03 11:14:40;;;;;;;10.07;7.90;;;19.20;99.90;;;;;;6153845;23;20434;-67
2021/09/03 11:17:11;;;;;;;7.63;6.90;;;19.20;99.90;;;;;;6153329;23;21019;-67
2021/09/03 11:19:40;;;;;;;7.33;6.63;;;19.20;99.90;;;;;;6153065;23;20911;-68
2021/09/03 11:22:09;;;;;;;10.90;7.10;;;19.20;99.90;;;;;;6153912;23;20827;-68
2021/09/03 11:24:39;;;;;;;9.13;8.23;;;19.30;99.90;;;;;;6153692;23;20790;-68
2021/09/03 11:27:07;;;;;;;8.80;8.00;;;19.30;99.90;;;;;;6154295;23;20422;-68
2021/09/03 11:29:36;;;;;;;11.70;7.80;;;19.40;99.90;;;;;;6154044;23;20908;-68
2021/09/03 11:32:07;;;;;;;12.37;8.03;;;19.50;99.90;;;;;;6153015;23;20819;-69
2021/09/03 11:34:51;;;;;;;9.47;7.40;;;19.50;99.90;;;;;;6153868;23;20410;-68
2021/09/03 11:37:19;;;;;;;9.67;7.40;;;19.60;99.90;;;;;;6163848;23;20478;-68
2021/09/03 11:39:46;;;;;;;9.37;8.33;;;19.60;99.90;;;;;;6154363;23;20473;-67
2021/09/03 11:42:22;;;;;;;8.70;7.80;;;19.60;99.90;;;;;;6153599;23;20831;-68
2021/09/03 11:44:50;;;;;;;10.03;7.80;;;19.70;99.90;;;;;;6154224;23;20434;-68
2021/09/03 11:47:24;;;;;;;12.63;9.13;;;19.60;99.90;;;;;;6153921;23;20482;-66
2021/09/03 11:49:52;;;;;;;10.03;9.13;;;19.60;99.90;;;;;;6153896;23;20411;-69
2021/09/03 11:52:26;;;;;;;15.07;9.33;;;19.60;99.90;;;;;;6153401;23;20459;-69
2021/09/03 11:54:54;;;;;;;12.70;8.70;;;19.60;99.90;;;;;;6154278;23;20430;-68
2021/09/03 11:57:21;;;;;;;14.40;8.87;;;19.60;99.90;;;;;;6154101;23;20427;-69
2021/09/03 11:59:53;;;;;;;9.63;8.70;;;19.60;99.90;;;;;;6154192;23;20423;-68
2021/09/03 12:02:20;;;;;;;9.40;8.13;;;19.70;99.90;;;;;;6152937;23;20952;-68
2021/09/03 12:04:47;;;;;;;10.07;9.03;;;19.70;99.90;;;;;;6153164;23;20505;-68
2021/09/03 12:07:19;;;;;;;9.23;7.83;;;19.70;99.90;;;;;;6153403;23;20719;-68
2021/09/03 12:09:46;;;;;;;9.10;8.20;;;19.70;99.90;;;;;;6153466;23;20407;-68
2021/09/03 12:12:12;;;;;;;11.30;8.27;;;19.80;99.90;;;;;;6154422;23;20465;-68
2021/09/03 12:14:39;;;;;;;17.60;9.33;;;19.80;99.90;;;;;;6155864;23;20489;-68
2021/09/03 12:17:06;;;;;;;9.20;8.00;;;19.80;99.90;;;;;;6154556;23;20446;-68
2021/09/03 12:19:37;;;;;;;9.03;8.13;;;19.90;99.90;;;;;;6155304;23;20427;-68
2021/09/03 12:22:04;;;;;;;9.57;8.63;;;19.90;99.90;;;;;;6155337;23;20501;-68
2021/09/03 12:24:39;;;;;;;10.33;8.40;;;20.00;99.90;;;;;;6155175;23;20446;-68
2021/09/03 12:27:11;;;;;;;11.03;9.27;;;20.00;99.90;;;;;;6155920;23;20481;-68
2021/09/03 12:29:38;;;;;;;10.73;9.60;;;20.10;99.90;;;;;;6155261;23;20442;-68
2021/09/03 12:32:05;;;;;;;13.20;8.90;;;20.10;99.90;;;;;;6154909;23;20501;-69
2021/09/03 12:34:34;;;;;;;11.67;10.10;;;20.20;99.90;;;;;;6155168;23;20480;-68
2021/09/03 12:37:02;;;;;;;13.77;9.27;;;20.20;99.90;;;;;;6155335;23;20931;-68
2021/09/03 12:39:30;;;;;;;10.00;8.87;;;20.20;99.90;;;;;;6155141;23;20422;-69
2021/09/03 12:41:58;;;;;;;12.50;10.03;;;20.30;99.90;;;;;;6155299;23;20442;-71
2021/09/03 12:44:26;;;;;;;9.93;9.00;;;20.30;99.90;;;;;;6155171;23;20422;-68
2021/09/03 12:46:55;;;;;;;10.60;9.50;;;20.30;99.90;;;;;;6154876;23;20797;-68
2021/09/03 12:49:26;;;;;;;11.30;10.10;;;20.40;99.90;;;;;;6154939;23;20427;-68
2021/09/03 12:51:54;;;;;;;11.93;9.90;;;20.40;99.90;;;;;;6155016;23;20443;-69
2021/09/03 12:54:22;;;;;;;14.43;9.17;;;20.40;99.90;;;;;;6155063;23;20407;-68
2021/09/03 12:56:50;;;;;;;11.33;9.80;;;20.50;99.90;;;;;;6155324;23;20497;-68
2021/09/03 12:59:19;;;;;;;10.87;9.77;;;20.50;99.90;;;;;;6154658;23;20485;-68
2021/09/03 13:01:46;;;;;;;10.40;9.17;;;20.60;99.90;;;;;;6154271;23;20457;-68
2021/09/03 13:04:17;;;;;;;10.00;9.03;;;20.60;99.90;;;;;;6154294;23;20500;-68
2021/09/03 13:06:47;;;;;;;10.10;8.87;;;20.60;99.90;;;;;;6154775;23;20481;-69
2021/09/03 13:09:14;;;;;;;9.90;8.90;;;20.60;99.90;;;;;;6154991;23;20434;-69
2021/09/03 13:11:40;;;;;;;10.43;9.30;;;20.70;99.90;;;;;;6155264;23;20449;-68
2021/09/03 13:14:08;;;;;;;10.63;9.50;;;20.70;99.90;;;;;;6155137;23;20787;-68
2021/09/03 13:16:37;;;;;;;9.97;9.00;;;20.80;99.90;;;;;;6154753;23;20419;-68
2021/09/03 13:19:05;;;;;;;11.03;9.73;;;20.80;99.90;;;;;;6154313;23;20466;-67
2021/09/03 13:21:31;;;;;;;11.73;10.53;;;20.80;99.90;;;;;;6155371;23;20442;-68
2021/09/03 13:23:58;;;;;;;14.33;9.87;;;20.80;99.90;;;;;;6154890;23;20703;-68
2021/09/03 13:26:25;;;;;;;10.53;8.93;;;20.80;99.90;;;;;;6155447;23;20517;-68
2021/09/03 13:28:51;;;;;;;12.50;9.70;;;20.80;99.90;;;;;;6154595;23;20928;-69
2021/09/03 13:31:20;;;;;;;13.83;9.90;;;20.80;99.90;;;;;;6154631;23;20455;-68
2021/09/03 13:33:52;;;;;;;10.30;9.20;;;20.80;99.90;;;;;;6154582;23;20427;-68
2021/09/03 13:36:20;;;;;;;11.47;9.00;;;20.90;99.90;;;;;;6154954;23;20407;-68
2021/09/03 13:38:48;;;;;;;10.13;9.00;;;20.90;99.90;;;;;;6154926;23;20467;-68
2021/09/03 13:41:14;;;;;;;12.90;9.00;;;21.00;99.90;;;;;;6155244;23;20442;-68
2021/09/03 13:43:41;;;;;;;10.83;9.80;;;21.10;99.90;;;;;;6154967;23;20526;-68
2021/09/03 13:46:08;;;;;;;12.70;9.73;;;21.10;99.90;;;;;;6156120;23;20443;-67
2021/09/03 13:48:35;;;;;;;9.80;8.73;;;21.10;99.90;;;;;;6158022;23;20427;-68
2021/09/03 13:51:02;;;;;;;11.43;7.90;;;21.10;99.90;;;;;;6159036;23;20455;-68
2021/09/03 13:53:30;;;;;;;9.63;8.73;;;21.20;99.90;;;;;;6158547;23;20954;-68
2021/09/03 13:55:58;;;;;;;10.03;9.00;;;21.20;99.90;;;;;;6160432;23;20419;-68
2021/09/03 13:58:25;;;;;;;10.73;8.47;;;21.20;99.90;;;;;;6158596;23;20422;-69
2021/09/03 14:00:51;;;;;;;11.37;9.00;;;21.20;99.90;;;;;;6158763;23;20451;-68
2021/09/03 14:03:18;;;;;;;9.47;8.17;;;21.20;99.90;;;;;;6157769;23;20501;-68
2021/09/03 14:05:45;;;;;;;11.00;8.83;;;21.20;99.90;;;;;;6158542;23;20450;-68
2021/09/03 14:08:13;;;;;;;9.83;8.83;;;21.20;99.90;;;;;;6161422;23;20418;-71
2021/09/03 14:10:39;;;;;;;8.97;8.07;;;21.20;99.90;;;;;;6160593;23;20493;-70
2021/09/03 14:13:06;;;;;;;9.77;7.83;;;21.30;99.90;;;;;;6162886;23;20458;-71
2021/09/03 14:15:33;;;;;;;10.97;9.73;;;21.30;99.90;;;;;;6160798;23;20419;-71
2021/09/03 14:18:06;;;;;;;9.70;8.80;;;21.40;99.90;;;;;;6160352;23;20418;-72
2021/09/03 14:20:33;;;;;;;8.03;7.33;;;21.40;99.90;;;;;;6162871;23;20438;-71
2021/09/03 14:23:00;;;;;;;12.77;8.90;;;21.40;99.90;;;;;;6157493;23;20946;-72
2021/09/03 14:25:28;;;;;;;8.73;7.87;;;21.30;99.90;;;;;;6156992;23;20446;-71
2021/09/03 14:27:55;;;;;;;8.80;8.00;;;21.30;99.90;;;;;;6157322;23;20445;-71
2021/09/03 14:30:22;;;;;;;10.17;7.83;;;21.30;99.90;;;;;;6156512;23;20426;-71
2021/09/03 14:32:49;;;;;;;8.77;7.70;;;21.40;99.90;;;;;;6154880;23;20418;-71
2021/09/03 14:35:16;;;;;;;13.07;7.80;;;21.40;99.90;;;;;;6155024;23;20473;-71
2021/09/03 14:37:43;;;;;;;9.80;8.00;;;21.40;99.90;;;;;;6154854;23;20422;-71
2021/09/03 14:40:10;;;;;;;8.80;7.87;;;21.40;99.90;;;;;;6154850;23;20508;-70
2021/09/03 14:42:38;;;;;;;13.17;8.90;;;21.40;99.90;;;;;;6154283;23;20798;-71
2021/09/03 14:45:06;;;;;;;16.23;10.90;;;21.40;99.90;;;;;;6154539;23;21015;-71
2021/09/03 14:47:35;;;;;;;11.70;10.60;;;21.40;99.90;;;;;;6154034;23;20438;-69
2021/09/03 14:50:01;;;;;;;12.27;10.37;;;21.40;99.90;;;;;;6154491;23;20490;-73
2021/09/03 14:52:28;;;;;;;13.10;11.00;;;21.40;99.90;;;;;;6154026;23;20474;-70
2021/09/03 14:54:55;;;;;;;15.43;11.20;;;21.40;99.90;;;;;;6155112;23;20427;-69
2021/09/03 14:57:21;;;;;;;18.87;11.23;;;21.40;99.90;;;;;;6154509;23;20473;-70
2021/09/03 14:59:49;;;;;;;13.13;11.50;;;21.40;99.90;;;;;;6154630;23;20621;-68
2021/09/03 15:02:16;;;;;;;13.50;10.83;;;21.30;99.90;;;;;;6153597;23;20451;-68
2021/09/03 15:04:44;;;;;;;13.33;10.20;;;21.30;99.90;;;;;;6154689;23;20983;-69
2021/09/03 15:07:11;;;;;;;17.50;12.20;;;21.20;99.90;;;;;;6155164;23;20520;-68
2021/09/03 15:09:37;;;;;;;18.87;11.33;;;21.20;99.90;;;;;;6154983;23;20423;-68
2021/09/03 15:12:08;;;;;;;15.17;11.70;;;21.10;99.90;;;;;;6154458;23;20455;-68
2021/09/03 15:14:35;;;;;;;13.90;11.50;;;21.10;99.90;;;;;;6154556;23;20414;-67
2021/09/03 15:17:03;;;;;;;14.83;11.50;;;21.10;99.90;;;;;;6154259;23;20427;-66
2021/09/03 15:19:30;;;;;;;16.40;12.50;;;21.10;99.90;;;;;;6154143;23;20788;-67
2021/09/03 15:21:56;;;;;;;13.73;10.40;;;21.00;99.90;;;;;;6154281;23;20461;-70
2021/09/03 15:24:23;;;;;;;14.67;11.27;;;21.00;99.90;;;;;;6154221;23;20423;-67
2021/09/03 15:26:50;;;;;;;15.50;13.13;;;21.00;99.90;;;;;;6153983;23;20454;-67
2021/09/03 15:29:18;;;;;;;15.00;11.60;;;21.00;99.90;;;;;;6154559;23;20430;-67
2021/09/03 15:31:44;;;;;;;17.03;12.00;;;21.00;99.90;;;;;;6153927;23;20442;-67
2021/09/03 15:34:12;;;;;;;16.97;12.00;;;20.90;99.90;;;;;;6153456;23;20505;-68
2021/09/03 15:36:39;;;;;;;17.20;12.20;;;20.90;99.90;;;;;;6154517;23;20426;-67
2021/09/03 15:39:06;;;;;;;13.97;10.87;;;20.90;99.90;;;;;;6154460;23;20427;-67
2021/09/03 15:41:33;;;;;;;21.97;11.23;;;20.90;99.90;;;;;;6154343;23;20442;-67
2021/09/03 15:43:59;;;;;;;18.40;12.40;;;20.80;99.90;;;;;;6153824;23;20905;-68
2021/09/03 15:46:26;;;;;;;15.73;12.90;;;20.80;99.90;;;;;;6154351;23;20446;-68
2021/09/03 15:48:53;;;;;;;12.77;11.57;;;20.70;99.90;;;;;;6156021;23;20767;-68
2021/09/03 15:51:21;;;;;;;13.53;11.20;;;20.70;99.90;;;;;;6156449;23;20446;-68
2021/09/03 15:53:47;;;;;;;18.73;11.47;;;20.70;99.90;;;;;;6156178;23;20430;-68
2021/09/03 15:56:14;;;;;;;12.40;10.87;;;20.70;99.90;;;;;;6156724;23;20445;-68
2021/09/03 15:58:41;;;;;;;23.40;11.70;;;20.60;99.90;;;;;;6158348;23;20403;-68
2021/09/03 16:01:08;;;;;;;16.00;10.77;;;20.60;99.90;;;;;;6155734;23;20505;-68
2021/09/03 16:03:35;;;;;;;12.07;10.83;;;20.60;99.90;;;;;;6155824;23;20510;-68
2021/09/03 16:06:02;;;;;;;11.03;9.90;;;20.50;99.90;;;;;;6165786;23;20449;-67
2021/09/03 16:08:30;;;;;;;16.33;11.13;;;20.50;99.90;;;;;;6170816;23;20615;-71
2021/09/03 16:10:57;;;;;;;13.00;9.97;;;20.40;99.90;;;;;;6170725;23;20442;-68
2021/09/03 16:13:23;;;;;;;17.40;11.23;;;20.40;99.90;;;;;;6155896;23;20422;-68
2021/09/03 16:15:50;;;;;;;11.97;10.33;;;20.30;99.90;;;;;;6155640;23;20485;-68
2021/09/03 16:18:17;;;;;;;12.37;10.17;;;20.30;99.90;;;;;;6155930;23;20430;-68
2021/09/03 16:20:44;;;;;;;17.53;11.70;;;20.20;99.90;;;;;;6155524;23;20442;-69
2021/09/03 16:23:10;;;;;;;16.80;10.10;;;20.20;99.90;;;;;;6157119;23;20735;-68
2021/09/03 16:25:40;;;;;;;14.23;10.30;;;20.10;99.90;;;;;;6164796;23;20454;-73
2021/09/03 16:28:07;;;;;;;13.63;9.17;;;20.10;99.90;;;;;;6159760;23;20419;-70
2021/09/03 16:30:34;;;;;;;11.13;8.70;;;20.00;99.90;;;;;;6159274;23;20992;-70
2021/09/03 16:33:01;;;;;;;13.93;9.23;;;20.00;99.90;;;;;;6157518;23;20430;-71
2021/09/03 16:35:28;;;;;;;14.87;10.03;;;19.90;99.90;;;;;;6157965;23;20422;-71
2021/09/03 16:37:55;;;;;;;13.17;9.60;;;19.80;99.90;;;;;;6160450;23;20474;-74
2021/09/03 16:40:21;;;;;;;15.90;9.90;;;19.80;99.90;;;;;;6159780;23;20561;-70
2021/09/03 16:42:49;;;;;;;13.23;9.47;;;19.80;99.90;;;;;;6157384;23;20893;-70